<?xml version="1.0" encoding="UTF-8" standalone="no" ?>
<gpx xmlns="http://www.topografix.com/GPX/1/1" xmlns:xsi="http://www.w3.org/2001/XMLSchema-instance" xsi:schemaLocation="http://www.topografix.com/GPX/1/1 http://www.topografix.com/GPX/1/1/gpx.xsd" version="1.1" creator="VisuGPX - https://www.visugpx.com">
  <metadata>
    <name>Raquettes Le Collet</name>
    <desc><![CDATA[Sortie raquettes avec le club vosgien de Saint Dié au départ du Collet, malheureusement, sur les crêtes, brouillard]]></desc>
  </metadata>
  <trk>
    <name><![CDATA[2018-02-20 15:59:25]]></name>
    <trkseg>
      <trkpt lat="48.05488" lon="7.00547">
        <ele>1114.79</ele>
        <time>2018-02-20T12:23:17Z</time>
      </trkpt>
      <trkpt lat="48.05486" lon="7.00553">
        <ele>1115.75</ele>
        <time>2018-02-20T12:23:34Z</time>
      </trkpt>
      <trkpt lat="48.05489" lon="7.00553">
        <ele>1114.79</ele>
        <time>2018-02-20T12:23:48Z</time>
      </trkpt>
      <trkpt lat="48.05492" lon="7.0055">
        <ele>1115.27</ele>
        <time>2018-02-20T12:24:05Z</time>
      </trkpt>
      <trkpt lat="48.05488" lon="7.0055">
        <ele>1111.9</ele>
        <time>2018-02-20T12:24:20Z</time>
      </trkpt>
      <trkpt lat="48.0549" lon="7.00551">
        <ele>1110.46</ele>
        <time>2018-02-20T12:24:32Z</time>
      </trkpt>
      <trkpt lat="48.05493" lon="7.00551">
        <ele>1109.98</ele>
        <time>2018-02-20T12:24:50Z</time>
      </trkpt>
      <trkpt lat="48.05494" lon="7.00551">
        <ele>1109.98</ele>
        <time>2018-02-20T12:24:51Z</time>
      </trkpt>
      <trkpt lat="48.05496" lon="7.00552">
        <ele>1109.98</ele>
        <time>2018-02-20T12:24:53Z</time>
      </trkpt>
      <trkpt lat="48.05496" lon="7.00555">
        <ele>1109.98</ele>
        <time>2018-02-20T12:24:55Z</time>
      </trkpt>
      <trkpt lat="48.05498" lon="7.00557">
        <ele>1109.98</ele>
        <time>2018-02-20T12:24:57Z</time>
      </trkpt>
      <trkpt lat="48.05498" lon="7.00559">
        <ele>1109.98</ele>
        <time>2018-02-20T12:24:58Z</time>
      </trkpt>
      <trkpt lat="48.05502" lon="7.00573">
        <ele>1110.46</ele>
        <time>2018-02-20T12:25:09Z</time>
      </trkpt>
      <trkpt lat="48.05516" lon="7.00581">
        <ele>1110.94</ele>
        <time>2018-02-20T12:25:24Z</time>
      </trkpt>
      <trkpt lat="48.05529" lon="7.00595">
        <ele>1112.38</ele>
        <time>2018-02-20T12:25:35Z</time>
      </trkpt>
      <trkpt lat="48.05534" lon="7.00611">
        <ele>1113.82</ele>
        <time>2018-02-20T12:25:48Z</time>
      </trkpt>
      <trkpt lat="48.05541" lon="7.00633">
        <ele>1110.94</ele>
        <time>2018-02-20T12:26:04Z</time>
      </trkpt>
      <trkpt lat="48.05552" lon="7.00659">
        <ele>1109.5</ele>
        <time>2018-02-20T12:26:21Z</time>
      </trkpt>
      <trkpt lat="48.05567" lon="7.00686">
        <ele>1108.54</ele>
        <time>2018-02-20T12:26:42Z</time>
      </trkpt>
      <trkpt lat="48.05578" lon="7.007">
        <ele>1109.5</ele>
        <time>2018-02-20T12:27:00Z</time>
      </trkpt>
      <trkpt lat="48.05594" lon="7.00726">
        <ele>1113.34</ele>
        <time>2018-02-20T12:27:23Z</time>
      </trkpt>
      <trkpt lat="48.0561" lon="7.00754">
        <ele>1110.46</ele>
        <time>2018-02-20T12:27:45Z</time>
      </trkpt>
      <trkpt lat="48.05626" lon="7.00773">
        <ele>1109.98</ele>
        <time>2018-02-20T12:28:04Z</time>
      </trkpt>
      <trkpt lat="48.05637" lon="7.00796">
        <ele>1109.98</ele>
        <time>2018-02-20T12:28:22Z</time>
      </trkpt>
      <trkpt lat="48.05645" lon="7.00821">
        <ele>1112.38</ele>
        <time>2018-02-20T12:28:39Z</time>
      </trkpt>
      <trkpt lat="48.05652" lon="7.00845">
        <ele>1115.75</ele>
        <time>2018-02-20T12:28:57Z</time>
      </trkpt>
      <trkpt lat="48.05659" lon="7.00878">
        <ele>1116.71</ele>
        <time>2018-02-20T12:29:20Z</time>
      </trkpt>
      <trkpt lat="48.05659" lon="7.00906">
        <ele>1123.44</ele>
        <time>2018-02-20T12:29:39Z</time>
      </trkpt>
      <trkpt lat="48.05665" lon="7.00931">
        <ele>1125.36</ele>
        <time>2018-02-20T12:29:58Z</time>
      </trkpt>
      <trkpt lat="48.05668" lon="7.00953">
        <ele>1128.24</ele>
        <time>2018-02-20T12:30:17Z</time>
      </trkpt>
      <trkpt lat="48.0567" lon="7.00983">
        <ele>1130.65</ele>
        <time>2018-02-20T12:30:36Z</time>
      </trkpt>
      <trkpt lat="48.0567" lon="7.01009">
        <ele>1135.45</ele>
        <time>2018-02-20T12:30:53Z</time>
      </trkpt>
      <trkpt lat="48.05668" lon="7.01031">
        <ele>1137.86</ele>
        <time>2018-02-20T12:31:08Z</time>
      </trkpt>
      <trkpt lat="48.0567" lon="7.01062">
        <ele>1143.14</ele>
        <time>2018-02-20T12:31:29Z</time>
      </trkpt>
      <trkpt lat="48.05675" lon="7.01089">
        <ele>1145.07</ele>
        <time>2018-02-20T12:31:52Z</time>
      </trkpt>
      <trkpt lat="48.05678" lon="7.01108">
        <ele>1142.66</ele>
        <time>2018-02-20T12:32:12Z</time>
      </trkpt>
      <trkpt lat="48.05686" lon="7.01114">
        <ele>1138.82</ele>
        <time>2018-02-20T12:32:32Z</time>
      </trkpt>
      <trkpt lat="48.05689" lon="7.01125">
        <ele>1147.47</ele>
        <time>2018-02-20T12:32:55Z</time>
      </trkpt>
      <trkpt lat="48.05692" lon="7.01142">
        <ele>1148.43</ele>
        <time>2018-02-20T12:33:14Z</time>
      </trkpt>
      <trkpt lat="48.05694" lon="7.01168">
        <ele>1150.84</ele>
        <time>2018-02-20T12:33:33Z</time>
      </trkpt>
      <trkpt lat="48.05702" lon="7.01191">
        <ele>1152.76</ele>
        <time>2018-02-20T12:33:51Z</time>
      </trkpt>
      <trkpt lat="48.05712" lon="7.01213">
        <ele>1149.87</ele>
        <time>2018-02-20T12:34:13Z</time>
      </trkpt>
      <trkpt lat="48.05714" lon="7.0122">
        <ele>1150.84</ele>
        <time>2018-02-20T12:34:34Z</time>
      </trkpt>
      <trkpt lat="48.0571" lon="7.01224">
        <ele>1150.35</ele>
        <time>2018-02-20T12:34:39Z</time>
      </trkpt>
      <trkpt lat="48.05718" lon="7.01236">
        <ele>1152.76</ele>
        <time>2018-02-20T12:34:56Z</time>
      </trkpt>
      <trkpt lat="48.05723" lon="7.01248">
        <ele>1155.16</ele>
        <time>2018-02-20T12:35:13Z</time>
      </trkpt>
      <trkpt lat="48.05736" lon="7.01267">
        <ele>1157.56</ele>
        <time>2018-02-20T12:35:33Z</time>
      </trkpt>
      <trkpt lat="48.05752" lon="7.01272">
        <ele>1160.45</ele>
        <time>2018-02-20T12:35:54Z</time>
      </trkpt>
      <trkpt lat="48.0577" lon="7.01288">
        <ele>1160.45</ele>
        <time>2018-02-20T12:36:17Z</time>
      </trkpt>
      <trkpt lat="48.05794" lon="7.01294">
        <ele>1157.08</ele>
        <time>2018-02-20T12:36:36Z</time>
      </trkpt>
      <trkpt lat="48.05814" lon="7.01302">
        <ele>1152.28</ele>
        <time>2018-02-20T12:36:56Z</time>
      </trkpt>
      <trkpt lat="48.05833" lon="7.01307">
        <ele>1149.87</ele>
        <time>2018-02-20T12:37:15Z</time>
      </trkpt>
      <trkpt lat="48.05861" lon="7.01316">
        <ele>1149.87</ele>
        <time>2018-02-20T12:37:38Z</time>
      </trkpt>
      <trkpt lat="48.05881" lon="7.01322">
        <ele>1149.87</ele>
        <time>2018-02-20T12:37:57Z</time>
      </trkpt>
      <trkpt lat="48.05905" lon="7.01329">
        <ele>1153.24</ele>
        <time>2018-02-20T12:38:18Z</time>
      </trkpt>
      <trkpt lat="48.05929" lon="7.01339">
        <ele>1151.8</ele>
        <time>2018-02-20T12:38:41Z</time>
      </trkpt>
      <trkpt lat="48.05949" lon="7.01349">
        <ele>1151.32</ele>
        <time>2018-02-20T12:39:00Z</time>
      </trkpt>
      <trkpt lat="48.0597" lon="7.01365">
        <ele>1150.84</ele>
        <time>2018-02-20T12:39:21Z</time>
      </trkpt>
      <trkpt lat="48.05985" lon="7.01364">
        <ele>1150.84</ele>
        <time>2018-02-20T12:39:40Z</time>
      </trkpt>
      <trkpt lat="48.05995" lon="7.01378">
        <ele>1152.76</ele>
        <time>2018-02-20T12:40:02Z</time>
      </trkpt>
      <trkpt lat="48.06016" lon="7.014">
        <ele>1152.28</ele>
        <time>2018-02-20T12:40:22Z</time>
      </trkpt>
      <trkpt lat="48.06035" lon="7.01417">
        <ele>1148.91</ele>
        <time>2018-02-20T12:40:42Z</time>
      </trkpt>
      <trkpt lat="48.0606" lon="7.0143">
        <ele>1146.03</ele>
        <time>2018-02-20T12:41:01Z</time>
      </trkpt>
      <trkpt lat="48.06077" lon="7.01452">
        <ele>1139.78</ele>
        <time>2018-02-20T12:41:23Z</time>
      </trkpt>
      <trkpt lat="48.061" lon="7.01473">
        <ele>1139.3</ele>
        <time>2018-02-20T12:41:42Z</time>
      </trkpt>
      <trkpt lat="48.06117" lon="7.01491">
        <ele>1136.42</ele>
        <time>2018-02-20T12:42:05Z</time>
      </trkpt>
      <trkpt lat="48.06133" lon="7.0151">
        <ele>1134.49</ele>
        <time>2018-02-20T12:42:24Z</time>
      </trkpt>
      <trkpt lat="48.06148" lon="7.01534">
        <ele>1137.38</ele>
        <time>2018-02-20T12:42:43Z</time>
      </trkpt>
      <trkpt lat="48.06164" lon="7.01554">
        <ele>1134.49</ele>
        <time>2018-02-20T12:43:02Z</time>
      </trkpt>
      <trkpt lat="48.06184" lon="7.01579">
        <ele>1129.21</ele>
        <time>2018-02-20T12:43:21Z</time>
      </trkpt>
      <trkpt lat="48.06195" lon="7.01603">
        <ele>1134.49</ele>
        <time>2018-02-20T12:43:38Z</time>
      </trkpt>
      <trkpt lat="48.06201" lon="7.01628">
        <ele>1133.05</ele>
        <time>2018-02-20T12:43:58Z</time>
      </trkpt>
      <trkpt lat="48.06208" lon="7.01652">
        <ele>1125.36</ele>
        <time>2018-02-20T12:44:21Z</time>
      </trkpt>
      <trkpt lat="48.06216" lon="7.01672">
        <ele>1127.28</ele>
        <time>2018-02-20T12:44:43Z</time>
      </trkpt>
      <trkpt lat="48.06223" lon="7.01671">
        <ele>1123.92</ele>
        <time>2018-02-20T12:45:10Z</time>
      </trkpt>
      <trkpt lat="48.06217" lon="7.01687">
        <ele>1135.45</ele>
        <time>2018-02-20T12:45:30Z</time>
      </trkpt>
      <trkpt lat="48.06213" lon="7.01694">
        <ele>1141.7</ele>
        <time>2018-02-20T12:45:48Z</time>
      </trkpt>
      <trkpt lat="48.06213" lon="7.01702">
        <ele>1140.26</ele>
        <time>2018-02-20T12:46:12Z</time>
      </trkpt>
      <trkpt lat="48.06215" lon="7.01701">
        <ele>1142.66</ele>
        <time>2018-02-20T12:46:38Z</time>
      </trkpt>
      <trkpt lat="48.06218" lon="7.01705">
        <ele>1139.78</ele>
        <time>2018-02-20T12:47:04Z</time>
      </trkpt>
      <trkpt lat="48.0622" lon="7.01709">
        <ele>1138.82</ele>
        <time>2018-02-20T12:47:23Z</time>
      </trkpt>
      <trkpt lat="48.06218" lon="7.01708">
        <ele>1143.63</ele>
        <time>2018-02-20T12:47:51Z</time>
      </trkpt>
      <trkpt lat="48.06224" lon="7.01722">
        <ele>1144.59</ele>
        <time>2018-02-20T12:48:09Z</time>
      </trkpt>
      <trkpt lat="48.06229" lon="7.01752">
        <ele>1142.66</ele>
        <time>2018-02-20T12:48:28Z</time>
      </trkpt>
      <trkpt lat="48.06232" lon="7.0177">
        <ele>1139.78</ele>
        <time>2018-02-20T12:48:39Z</time>
      </trkpt>
      <trkpt lat="48.06235" lon="7.01799">
        <ele>1134.97</ele>
        <time>2018-02-20T12:48:57Z</time>
      </trkpt>
      <trkpt lat="48.06238" lon="7.01837">
        <ele>1133.53</ele>
        <time>2018-02-20T12:49:16Z</time>
      </trkpt>
      <trkpt lat="48.06241" lon="7.01868">
        <ele>1130.17</ele>
        <time>2018-02-20T12:49:33Z</time>
      </trkpt>
      <trkpt lat="48.06241" lon="7.019">
        <ele>1127.28</ele>
        <time>2018-02-20T12:49:52Z</time>
      </trkpt>
      <trkpt lat="48.06246" lon="7.01935">
        <ele>1124.88</ele>
        <time>2018-02-20T12:50:11Z</time>
      </trkpt>
      <trkpt lat="48.06255" lon="7.01964">
        <ele>1123.44</ele>
        <time>2018-02-20T12:50:28Z</time>
      </trkpt>
      <trkpt lat="48.06248" lon="7.01999">
        <ele>1120.07</ele>
        <time>2018-02-20T12:50:48Z</time>
      </trkpt>
      <trkpt lat="48.06236" lon="7.02032">
        <ele>1117.19</ele>
        <time>2018-02-20T12:51:08Z</time>
      </trkpt>
      <trkpt lat="48.06239" lon="7.02061">
        <ele>1110.94</ele>
        <time>2018-02-20T12:51:29Z</time>
      </trkpt>
      <trkpt lat="48.06252" lon="7.02084">
        <ele>1107.58</ele>
        <time>2018-02-20T12:51:49Z</time>
      </trkpt>
      <trkpt lat="48.06253" lon="7.02084">
        <ele>1107.58</ele>
        <time>2018-02-20T12:51:50Z</time>
      </trkpt>
      <trkpt lat="48.06276" lon="7.02093">
        <ele>1111.9</ele>
        <time>2018-02-20T12:52:07Z</time>
      </trkpt>
      <trkpt lat="48.06291" lon="7.02102">
        <ele>1117.67</ele>
        <time>2018-02-20T12:52:24Z</time>
      </trkpt>
      <trkpt lat="48.06299" lon="7.02118">
        <ele>1120.55</ele>
        <time>2018-02-20T12:52:41Z</time>
      </trkpt>
      <trkpt lat="48.06298" lon="7.02145">
        <ele>1122.48</ele>
        <time>2018-02-20T12:53:03Z</time>
      </trkpt>
      <trkpt lat="48.06302" lon="7.02164">
        <ele>1125.84</ele>
        <time>2018-02-20T12:53:25Z</time>
      </trkpt>
      <trkpt lat="48.06312" lon="7.02193">
        <ele>1124.88</ele>
        <time>2018-02-20T12:53:44Z</time>
      </trkpt>
      <trkpt lat="48.06318" lon="7.02229">
        <ele>1125.36</ele>
        <time>2018-02-20T12:54:11Z</time>
      </trkpt>
      <trkpt lat="48.06315" lon="7.02253">
        <ele>1122.48</ele>
        <time>2018-02-20T12:54:31Z</time>
      </trkpt>
      <trkpt lat="48.06319" lon="7.02282">
        <ele>1125.84</ele>
        <time>2018-02-20T12:54:53Z</time>
      </trkpt>
      <trkpt lat="48.06317" lon="7.02295">
        <ele>1131.13</ele>
        <time>2018-02-20T12:55:15Z</time>
      </trkpt>
      <trkpt lat="48.06314" lon="7.02304">
        <ele>1134.97</ele>
        <time>2018-02-20T12:55:35Z</time>
      </trkpt>
      <trkpt lat="48.06305" lon="7.02316">
        <ele>1137.86</ele>
        <time>2018-02-20T12:55:56Z</time>
      </trkpt>
      <trkpt lat="48.06294" lon="7.02326">
        <ele>1142.18</ele>
        <time>2018-02-20T12:56:20Z</time>
      </trkpt>
      <trkpt lat="48.06292" lon="7.02329">
        <ele>1147.47</ele>
        <time>2018-02-20T12:56:48Z</time>
      </trkpt>
      <trkpt lat="48.06286" lon="7.02327">
        <ele>1158.05</ele>
        <time>2018-02-20T12:57:16Z</time>
      </trkpt>
      <trkpt lat="48.06291" lon="7.02321">
        <ele>1162.85</ele>
        <time>2018-02-20T12:57:50Z</time>
      </trkpt>
      <trkpt lat="48.06294" lon="7.02312">
        <ele>1170.54</ele>
        <time>2018-02-20T12:58:27Z</time>
      </trkpt>
      <trkpt lat="48.06284" lon="7.02322">
        <ele>1169.58</ele>
        <time>2018-02-20T12:58:59Z</time>
      </trkpt>
      <trkpt lat="48.06284" lon="7.02326">
        <ele>1164.29</ele>
        <time>2018-02-20T12:59:29Z</time>
      </trkpt>
      <trkpt lat="48.06289" lon="7.02325">
        <ele>1161.89</ele>
        <time>2018-02-20T12:59:56Z</time>
      </trkpt>
      <trkpt lat="48.06295" lon="7.02324">
        <ele>1158.53</ele>
        <time>2018-02-20T13:00:26Z</time>
      </trkpt>
      <trkpt lat="48.06284" lon="7.0233">
        <ele>1155.64</ele>
        <time>2018-02-20T13:00:52Z</time>
      </trkpt>
      <trkpt lat="48.0628" lon="7.02335">
        <ele>1157.08</ele>
        <time>2018-02-20T13:01:19Z</time>
      </trkpt>
      <trkpt lat="48.06262" lon="7.02341">
        <ele>1153.72</ele>
        <time>2018-02-20T13:01:43Z</time>
      </trkpt>
      <trkpt lat="48.06247" lon="7.02349">
        <ele>1151.32</ele>
        <time>2018-02-20T13:02:02Z</time>
      </trkpt>
      <trkpt lat="48.06235" lon="7.02357">
        <ele>1148.91</ele>
        <time>2018-02-20T13:02:22Z</time>
      </trkpt>
      <trkpt lat="48.0622" lon="7.02363">
        <ele>1147.95</ele>
        <time>2018-02-20T13:02:43Z</time>
      </trkpt>
      <trkpt lat="48.06204" lon="7.02371">
        <ele>1149.39</ele>
        <time>2018-02-20T13:03:05Z</time>
      </trkpt>
      <trkpt lat="48.06189" lon="7.02379">
        <ele>1150.35</ele>
        <time>2018-02-20T13:03:28Z</time>
      </trkpt>
      <trkpt lat="48.06175" lon="7.02388">
        <ele>1152.28</ele>
        <time>2018-02-20T13:03:47Z</time>
      </trkpt>
      <trkpt lat="48.06159" lon="7.02394">
        <ele>1157.56</ele>
        <time>2018-02-20T13:04:09Z</time>
      </trkpt>
      <trkpt lat="48.06148" lon="7.02399">
        <ele>1161.89</ele>
        <time>2018-02-20T13:04:29Z</time>
      </trkpt>
      <trkpt lat="48.06132" lon="7.02409">
        <ele>1170.06</ele>
        <time>2018-02-20T13:04:52Z</time>
      </trkpt>
      <trkpt lat="48.06117" lon="7.02413">
        <ele>1171.02</ele>
        <time>2018-02-20T13:05:17Z</time>
      </trkpt>
      <trkpt lat="48.06107" lon="7.02419">
        <ele>1174.39</ele>
        <time>2018-02-20T13:05:38Z</time>
      </trkpt>
      <trkpt lat="48.06089" lon="7.02416">
        <ele>1178.71</ele>
        <time>2018-02-20T13:05:58Z</time>
      </trkpt>
      <trkpt lat="48.06076" lon="7.02408">
        <ele>1181.12</ele>
        <time>2018-02-20T13:06:20Z</time>
      </trkpt>
      <trkpt lat="48.06052" lon="7.02397">
        <ele>1181.6</ele>
        <time>2018-02-20T13:06:41Z</time>
      </trkpt>
      <trkpt lat="48.06033" lon="7.02389">
        <ele>1184.96</ele>
        <time>2018-02-20T13:07:04Z</time>
      </trkpt>
      <trkpt lat="48.0602" lon="7.02384">
        <ele>1183.52</ele>
        <time>2018-02-20T13:07:23Z</time>
      </trkpt>
      <trkpt lat="48.06005" lon="7.02376">
        <ele>1182.08</ele>
        <time>2018-02-20T13:07:42Z</time>
      </trkpt>
      <trkpt lat="48.05982" lon="7.02367">
        <ele>1185.92</ele>
        <time>2018-02-20T13:08:04Z</time>
      </trkpt>
      <trkpt lat="48.05969" lon="7.02363">
        <ele>1188.81</ele>
        <time>2018-02-20T13:08:23Z</time>
      </trkpt>
      <trkpt lat="48.05951" lon="7.02355">
        <ele>1189.29</ele>
        <time>2018-02-20T13:08:46Z</time>
      </trkpt>
      <trkpt lat="48.05935" lon="7.02348">
        <ele>1191.21</ele>
        <time>2018-02-20T13:09:12Z</time>
      </trkpt>
      <trkpt lat="48.05933" lon="7.02344">
        <ele>1190.25</ele>
        <time>2018-02-20T13:09:41Z</time>
      </trkpt>
      <trkpt lat="48.05933" lon="7.02349">
        <ele>1191.69</ele>
        <time>2018-02-20T13:10:06Z</time>
      </trkpt>
      <trkpt lat="48.05931" lon="7.02351">
        <ele>1194.09</ele>
        <time>2018-02-20T13:10:33Z</time>
      </trkpt>
      <trkpt lat="48.05928" lon="7.02347">
        <ele>1206.11</ele>
        <time>2018-02-20T13:11:03Z</time>
      </trkpt>
      <trkpt lat="48.05927" lon="7.02349">
        <ele>1209.96</ele>
        <time>2018-02-20T13:11:34Z</time>
      </trkpt>
      <trkpt lat="48.05934" lon="7.02345">
        <ele>1205.15</ele>
        <time>2018-02-20T13:12:04Z</time>
      </trkpt>
      <trkpt lat="48.05931" lon="7.02346">
        <ele>1203.71</ele>
        <time>2018-02-20T13:12:32Z</time>
      </trkpt>
      <trkpt lat="48.05918" lon="7.02341">
        <ele>1204.19</ele>
        <time>2018-02-20T13:12:51Z</time>
      </trkpt>
      <trkpt lat="48.05905" lon="7.02332">
        <ele>1202.75</ele>
        <time>2018-02-20T13:13:13Z</time>
      </trkpt>
      <trkpt lat="48.05888" lon="7.02321">
        <ele>1200.34</ele>
        <time>2018-02-20T13:13:32Z</time>
      </trkpt>
      <trkpt lat="48.05876" lon="7.0231">
        <ele>1196.98</ele>
        <time>2018-02-20T13:13:53Z</time>
      </trkpt>
      <trkpt lat="48.05861" lon="7.02303">
        <ele>1195.06</ele>
        <time>2018-02-20T13:14:12Z</time>
      </trkpt>
      <trkpt lat="48.05846" lon="7.02297">
        <ele>1194.58</ele>
        <time>2018-02-20T13:14:32Z</time>
      </trkpt>
      <trkpt lat="48.05826" lon="7.02294">
        <ele>1195.54</ele>
        <time>2018-02-20T13:14:52Z</time>
      </trkpt>
      <trkpt lat="48.05812" lon="7.02295">
        <ele>1196.98</ele>
        <time>2018-02-20T13:15:10Z</time>
      </trkpt>
      <trkpt lat="48.058" lon="7.02302">
        <ele>1197.46</ele>
        <time>2018-02-20T13:15:30Z</time>
      </trkpt>
      <trkpt lat="48.0578" lon="7.02316">
        <ele>1200.82</ele>
        <time>2018-02-20T13:15:56Z</time>
      </trkpt>
      <trkpt lat="48.05766" lon="7.02335">
        <ele>1203.23</ele>
        <time>2018-02-20T13:16:17Z</time>
      </trkpt>
      <trkpt lat="48.05755" lon="7.02354">
        <ele>1205.15</ele>
        <time>2018-02-20T13:16:41Z</time>
      </trkpt>
      <trkpt lat="48.05746" lon="7.02371">
        <ele>1204.67</ele>
        <time>2018-02-20T13:17:02Z</time>
      </trkpt>
      <trkpt lat="48.05736" lon="7.02376">
        <ele>1205.15</ele>
        <time>2018-02-20T13:17:20Z</time>
      </trkpt>
      <trkpt lat="48.05723" lon="7.02384">
        <ele>1209.48</ele>
        <time>2018-02-20T13:17:44Z</time>
      </trkpt>
      <trkpt lat="48.05709" lon="7.02392">
        <ele>1214.28</ele>
        <time>2018-02-20T13:18:07Z</time>
      </trkpt>
      <trkpt lat="48.05694" lon="7.02392">
        <ele>1224.38</ele>
        <time>2018-02-20T13:18:31Z</time>
      </trkpt>
      <trkpt lat="48.05677" lon="7.02402">
        <ele>1226.78</ele>
        <time>2018-02-20T13:18:54Z</time>
      </trkpt>
      <trkpt lat="48.05668" lon="7.02418">
        <ele>1227.26</ele>
        <time>2018-02-20T13:19:15Z</time>
      </trkpt>
      <trkpt lat="48.0565" lon="7.02424">
        <ele>1231.11</ele>
        <time>2018-02-20T13:19:38Z</time>
      </trkpt>
      <trkpt lat="48.05633" lon="7.02415">
        <ele>1232.55</ele>
        <time>2018-02-20T13:20:03Z</time>
      </trkpt>
      <trkpt lat="48.05615" lon="7.02401">
        <ele>1234.47</ele>
        <time>2018-02-20T13:20:25Z</time>
      </trkpt>
      <trkpt lat="48.05603" lon="7.0241">
        <ele>1235.43</ele>
        <time>2018-02-20T13:20:44Z</time>
      </trkpt>
      <trkpt lat="48.05591" lon="7.02425">
        <ele>1231.59</ele>
        <time>2018-02-20T13:21:04Z</time>
      </trkpt>
      <trkpt lat="48.05584" lon="7.0244">
        <ele>1230.62</ele>
        <time>2018-02-20T13:21:27Z</time>
      </trkpt>
      <trkpt lat="48.05571" lon="7.02454">
        <ele>1233.51</ele>
        <time>2018-02-20T13:21:43Z</time>
      </trkpt>
      <trkpt lat="48.05556" lon="7.02453">
        <ele>1234.95</ele>
        <time>2018-02-20T13:21:58Z</time>
      </trkpt>
      <trkpt lat="48.0554" lon="7.02443">
        <ele>1234.95</ele>
        <time>2018-02-20T13:22:17Z</time>
      </trkpt>
      <trkpt lat="48.05529" lon="7.0243">
        <ele>1234.95</ele>
        <time>2018-02-20T13:22:33Z</time>
      </trkpt>
      <trkpt lat="48.05519" lon="7.02424">
        <ele>1234.47</ele>
        <time>2018-02-20T13:22:48Z</time>
      </trkpt>
      <trkpt lat="48.05503" lon="7.02411">
        <ele>1236.39</ele>
        <time>2018-02-20T13:23:12Z</time>
      </trkpt>
      <trkpt lat="48.05489" lon="7.02393">
        <ele>1236.87</ele>
        <time>2018-02-20T13:23:33Z</time>
      </trkpt>
      <trkpt lat="48.05481" lon="7.02368">
        <ele>1235.91</ele>
        <time>2018-02-20T13:23:54Z</time>
      </trkpt>
      <trkpt lat="48.05476" lon="7.02358">
        <ele>1235.91</ele>
        <time>2018-02-20T13:24:15Z</time>
      </trkpt>
      <trkpt lat="48.0546" lon="7.02338">
        <ele>1235.91</ele>
        <time>2018-02-20T13:24:37Z</time>
      </trkpt>
      <trkpt lat="48.05449" lon="7.02315">
        <ele>1234.95</ele>
        <time>2018-02-20T13:24:59Z</time>
      </trkpt>
      <trkpt lat="48.05436" lon="7.02292">
        <ele>1232.55</ele>
        <time>2018-02-20T13:25:21Z</time>
      </trkpt>
      <trkpt lat="48.05427" lon="7.02274">
        <ele>1230.14</ele>
        <time>2018-02-20T13:25:40Z</time>
      </trkpt>
      <trkpt lat="48.05422" lon="7.02263">
        <ele>1226.78</ele>
        <time>2018-02-20T13:26:01Z</time>
      </trkpt>
      <trkpt lat="48.05421" lon="7.02263">
        <ele>1225.82</ele>
        <time>2018-02-20T13:26:32Z</time>
      </trkpt>
      <trkpt lat="48.05423" lon="7.02264">
        <ele>1225.82</ele>
        <time>2018-02-20T13:27:03Z</time>
      </trkpt>
      <trkpt lat="48.05422" lon="7.02263">
        <ele>1228.7</ele>
        <time>2018-02-20T13:27:33Z</time>
      </trkpt>
      <trkpt lat="48.0542" lon="7.02263">
        <ele>1233.51</ele>
        <time>2018-02-20T13:28:12Z</time>
      </trkpt>
      <trkpt lat="48.05413" lon="7.02252">
        <ele>1233.51</ele>
        <time>2018-02-20T13:28:30Z</time>
      </trkpt>
      <trkpt lat="48.05404" lon="7.0224">
        <ele>1233.03</ele>
        <time>2018-02-20T13:28:48Z</time>
      </trkpt>
      <trkpt lat="48.05393" lon="7.02224">
        <ele>1233.03</ele>
        <time>2018-02-20T13:29:05Z</time>
      </trkpt>
      <trkpt lat="48.05381" lon="7.02209">
        <ele>1232.55</ele>
        <time>2018-02-20T13:29:24Z</time>
      </trkpt>
      <trkpt lat="48.0537" lon="7.02194">
        <ele>1231.59</ele>
        <time>2018-02-20T13:29:41Z</time>
      </trkpt>
      <trkpt lat="48.05359" lon="7.02178">
        <ele>1232.07</ele>
        <time>2018-02-20T13:29:57Z</time>
      </trkpt>
      <trkpt lat="48.05343" lon="7.02158">
        <ele>1232.07</ele>
        <time>2018-02-20T13:30:18Z</time>
      </trkpt>
      <trkpt lat="48.05329" lon="7.02134">
        <ele>1230.14</ele>
        <time>2018-02-20T13:30:40Z</time>
      </trkpt>
      <trkpt lat="48.05315" lon="7.02117">
        <ele>1228.7</ele>
        <time>2018-02-20T13:30:58Z</time>
      </trkpt>
      <trkpt lat="48.053" lon="7.02099">
        <ele>1227.74</ele>
        <time>2018-02-20T13:31:18Z</time>
      </trkpt>
      <trkpt lat="48.05288" lon="7.02083">
        <ele>1227.74</ele>
        <time>2018-02-20T13:31:34Z</time>
      </trkpt>
      <trkpt lat="48.05282" lon="7.02077">
        <ele>1227.26</ele>
        <time>2018-02-20T13:31:55Z</time>
      </trkpt>
      <trkpt lat="48.05266" lon="7.02061">
        <ele>1226.3</ele>
        <time>2018-02-20T13:32:13Z</time>
      </trkpt>
      <trkpt lat="48.05252" lon="7.02046">
        <ele>1224.38</ele>
        <time>2018-02-20T13:32:31Z</time>
      </trkpt>
      <trkpt lat="48.05241" lon="7.02028">
        <ele>1221.49</ele>
        <time>2018-02-20T13:32:49Z</time>
      </trkpt>
      <trkpt lat="48.05224" lon="7.0201">
        <ele>1218.13</ele>
        <time>2018-02-20T13:33:09Z</time>
      </trkpt>
      <trkpt lat="48.05208" lon="7.01984">
        <ele>1213.32</ele>
        <time>2018-02-20T13:33:34Z</time>
      </trkpt>
      <trkpt lat="48.05196" lon="7.01968">
        <ele>1209.48</ele>
        <time>2018-02-20T13:33:52Z</time>
      </trkpt>
      <trkpt lat="48.05183" lon="7.0195">
        <ele>1208.51</ele>
        <time>2018-02-20T13:34:17Z</time>
      </trkpt>
      <trkpt lat="48.05182" lon="7.01944">
        <ele>1216.21</ele>
        <time>2018-02-20T13:34:49Z</time>
      </trkpt>
      <trkpt lat="48.05173" lon="7.01923">
        <ele>1222.93</ele>
        <time>2018-02-20T13:35:10Z</time>
      </trkpt>
      <trkpt lat="48.05168" lon="7.01889">
        <ele>1223.9</ele>
        <time>2018-02-20T13:35:30Z</time>
      </trkpt>
      <trkpt lat="48.0517" lon="7.01853">
        <ele>1221.49</ele>
        <time>2018-02-20T13:35:52Z</time>
      </trkpt>
      <trkpt lat="48.05173" lon="7.01825">
        <ele>1219.57</ele>
        <time>2018-02-20T13:36:10Z</time>
      </trkpt>
      <trkpt lat="48.05176" lon="7.01797">
        <ele>1219.09</ele>
        <time>2018-02-20T13:36:29Z</time>
      </trkpt>
      <trkpt lat="48.0518" lon="7.01763">
        <ele>1220.53</ele>
        <time>2018-02-20T13:36:48Z</time>
      </trkpt>
      <trkpt lat="48.0518" lon="7.01735">
        <ele>1223.42</ele>
        <time>2018-02-20T13:37:07Z</time>
      </trkpt>
      <trkpt lat="48.05182" lon="7.01704">
        <ele>1224.38</ele>
        <time>2018-02-20T13:37:27Z</time>
      </trkpt>
      <trkpt lat="48.05182" lon="7.01674">
        <ele>1224.38</ele>
        <time>2018-02-20T13:37:46Z</time>
      </trkpt>
      <trkpt lat="48.05186" lon="7.01648">
        <ele>1220.53</ele>
        <time>2018-02-20T13:38:04Z</time>
      </trkpt>
      <trkpt lat="48.05191" lon="7.01628">
        <ele>1218.61</ele>
        <time>2018-02-20T13:38:21Z</time>
      </trkpt>
      <trkpt lat="48.05184" lon="7.01612">
        <ele>1222.45</ele>
        <time>2018-02-20T13:38:41Z</time>
      </trkpt>
      <trkpt lat="48.05173" lon="7.01605">
        <ele>1220.53</ele>
        <time>2018-02-20T13:38:57Z</time>
      </trkpt>
      <trkpt lat="48.05164" lon="7.01598">
        <ele>1221.01</ele>
        <time>2018-02-20T13:39:15Z</time>
      </trkpt>
      <trkpt lat="48.05154" lon="7.01589">
        <ele>1220.53</ele>
        <time>2018-02-20T13:39:36Z</time>
      </trkpt>
      <trkpt lat="48.05144" lon="7.01581">
        <ele>1221.97</ele>
        <time>2018-02-20T13:39:52Z</time>
      </trkpt>
      <trkpt lat="48.05129" lon="7.01577">
        <ele>1223.42</ele>
        <time>2018-02-20T13:40:13Z</time>
      </trkpt>
      <trkpt lat="48.05113" lon="7.01577">
        <ele>1223.9</ele>
        <time>2018-02-20T13:40:32Z</time>
      </trkpt>
      <trkpt lat="48.05096" lon="7.01578">
        <ele>1224.86</ele>
        <time>2018-02-20T13:40:52Z</time>
      </trkpt>
      <trkpt lat="48.0508" lon="7.01576">
        <ele>1225.34</ele>
        <time>2018-02-20T13:41:11Z</time>
      </trkpt>
      <trkpt lat="48.05061" lon="7.01569">
        <ele>1224.38</ele>
        <time>2018-02-20T13:41:30Z</time>
      </trkpt>
      <trkpt lat="48.05043" lon="7.01565">
        <ele>1225.82</ele>
        <time>2018-02-20T13:41:48Z</time>
      </trkpt>
      <trkpt lat="48.05023" lon="7.01559">
        <ele>1227.74</ele>
        <time>2018-02-20T13:42:08Z</time>
      </trkpt>
      <trkpt lat="48.05001" lon="7.01549">
        <ele>1227.74</ele>
        <time>2018-02-20T13:42:29Z</time>
      </trkpt>
      <trkpt lat="48.04979" lon="7.01542">
        <ele>1230.14</ele>
        <time>2018-02-20T13:42:47Z</time>
      </trkpt>
      <trkpt lat="48.04966" lon="7.01533">
        <ele>1231.11</ele>
        <time>2018-02-20T13:43:03Z</time>
      </trkpt>
      <trkpt lat="48.04951" lon="7.01526">
        <ele>1232.07</ele>
        <time>2018-02-20T13:43:24Z</time>
      </trkpt>
      <trkpt lat="48.04936" lon="7.01515">
        <ele>1233.03</ele>
        <time>2018-02-20T13:43:41Z</time>
      </trkpt>
      <trkpt lat="48.0492" lon="7.01504">
        <ele>1235.91</ele>
        <time>2018-02-20T13:44:01Z</time>
      </trkpt>
      <trkpt lat="48.04906" lon="7.01496">
        <ele>1238.32</ele>
        <time>2018-02-20T13:44:21Z</time>
      </trkpt>
      <trkpt lat="48.04891" lon="7.01488">
        <ele>1240.24</ele>
        <time>2018-02-20T13:44:41Z</time>
      </trkpt>
      <trkpt lat="48.04881" lon="7.01479">
        <ele>1243.12</ele>
        <time>2018-02-20T13:44:56Z</time>
      </trkpt>
      <trkpt lat="48.04869" lon="7.01475">
        <ele>1249.37</ele>
        <time>2018-02-20T13:45:11Z</time>
      </trkpt>
      <trkpt lat="48.0486" lon="7.01467">
        <ele>1252.74</ele>
        <time>2018-02-20T13:45:29Z</time>
      </trkpt>
      <trkpt lat="48.04843" lon="7.01461">
        <ele>1256.58</ele>
        <time>2018-02-20T13:45:51Z</time>
      </trkpt>
      <trkpt lat="48.04827" lon="7.01453">
        <ele>1259.94</ele>
        <time>2018-02-20T13:46:11Z</time>
      </trkpt>
      <trkpt lat="48.0481" lon="7.01447">
        <ele>1260.91</ele>
        <time>2018-02-20T13:46:35Z</time>
      </trkpt>
      <trkpt lat="48.04803" lon="7.01445">
        <ele>1262.35</ele>
        <time>2018-02-20T13:46:53Z</time>
      </trkpt>
      <trkpt lat="48.04793" lon="7.01447">
        <ele>1263.31</ele>
        <time>2018-02-20T13:47:10Z</time>
      </trkpt>
      <trkpt lat="48.04791" lon="7.01446">
        <ele>1265.23</ele>
        <time>2018-02-20T13:47:40Z</time>
      </trkpt>
      <trkpt lat="48.04792" lon="7.01447">
        <ele>1269.56</ele>
        <time>2018-02-20T13:48:17Z</time>
      </trkpt>
      <trkpt lat="48.04788" lon="7.01446">
        <ele>1273.88</ele>
        <time>2018-02-20T13:48:50Z</time>
      </trkpt>
      <trkpt lat="48.04786" lon="7.01445">
        <ele>1278.21</ele>
        <time>2018-02-20T13:49:22Z</time>
      </trkpt>
      <trkpt lat="48.04788" lon="7.01444">
        <ele>1277.25</ele>
        <time>2018-02-20T13:49:41Z</time>
      </trkpt>
      <trkpt lat="48.04785" lon="7.01447">
        <ele>1274.36</ele>
        <time>2018-02-20T13:50:07Z</time>
      </trkpt>
      <trkpt lat="48.04787" lon="7.01448">
        <ele>1273.88</ele>
        <time>2018-02-20T13:50:36Z</time>
      </trkpt>
      <trkpt lat="48.04792" lon="7.01448">
        <ele>1270.04</ele>
        <time>2018-02-20T13:51:05Z</time>
      </trkpt>
      <trkpt lat="48.04792" lon="7.01445">
        <ele>1270.04</ele>
        <time>2018-02-20T13:51:30Z</time>
      </trkpt>
      <trkpt lat="48.04793" lon="7.01448">
        <ele>1268.12</ele>
        <time>2018-02-20T13:51:59Z</time>
      </trkpt>
      <trkpt lat="48.04791" lon="7.01445">
        <ele>1267.16</ele>
        <time>2018-02-20T13:52:22Z</time>
      </trkpt>
      <trkpt lat="48.0479" lon="7.01444">
        <ele>1266.67</ele>
        <time>2018-02-20T13:52:52Z</time>
      </trkpt>
      <trkpt lat="48.04791" lon="7.01447">
        <ele>1265.23</ele>
        <time>2018-02-20T13:53:18Z</time>
      </trkpt>
      <trkpt lat="48.0479" lon="7.01446">
        <ele>1264.27</ele>
        <time>2018-02-20T13:53:44Z</time>
      </trkpt>
      <trkpt lat="48.04791" lon="7.01445">
        <ele>1267.16</ele>
        <time>2018-02-20T13:54:07Z</time>
      </trkpt>
      <trkpt lat="48.04791" lon="7.01444">
        <ele>1268.6</ele>
        <time>2018-02-20T13:54:29Z</time>
      </trkpt>
      <trkpt lat="48.04793" lon="7.01444">
        <ele>1266.19</ele>
        <time>2018-02-20T13:54:57Z</time>
      </trkpt>
      <trkpt lat="48.04793" lon="7.01443">
        <ele>1266.67</ele>
        <time>2018-02-20T13:55:29Z</time>
      </trkpt>
      <trkpt lat="48.04792" lon="7.01444">
        <ele>1264.75</ele>
        <time>2018-02-20T13:56:01Z</time>
      </trkpt>
      <trkpt lat="48.04793" lon="7.01444">
        <ele>1266.67</ele>
        <time>2018-02-20T13:56:32Z</time>
      </trkpt>
      <trkpt lat="48.04793" lon="7.01444">
        <ele>1267.64</ele>
        <time>2018-02-20T13:57:05Z</time>
      </trkpt>
      <trkpt lat="48.0479" lon="7.01446">
        <ele>1265.71</ele>
        <time>2018-02-20T13:57:38Z</time>
      </trkpt>
      <trkpt lat="48.04794" lon="7.01445">
        <ele>1265.71</ele>
        <time>2018-02-20T13:58:10Z</time>
      </trkpt>
      <trkpt lat="48.04793" lon="7.01442">
        <ele>1264.27</ele>
        <time>2018-02-20T13:58:43Z</time>
      </trkpt>
      <trkpt lat="48.04791" lon="7.01443">
        <ele>1265.71</ele>
        <time>2018-02-20T13:59:16Z</time>
      </trkpt>
      <trkpt lat="48.04792" lon="7.01444">
        <ele>1266.67</ele>
        <time>2018-02-20T13:59:50Z</time>
      </trkpt>
      <trkpt lat="48.04793" lon="7.01442">
        <ele>1267.16</ele>
        <time>2018-02-20T14:00:22Z</time>
      </trkpt>
      <trkpt lat="48.04787" lon="7.01446">
        <ele>1268.12</ele>
        <time>2018-02-20T14:00:47Z</time>
      </trkpt>
      <trkpt lat="48.04772" lon="7.0146">
        <ele>1268.12</ele>
        <time>2018-02-20T14:01:06Z</time>
      </trkpt>
      <trkpt lat="48.04759" lon="7.01472">
        <ele>1268.6</ele>
        <time>2018-02-20T14:01:23Z</time>
      </trkpt>
      <trkpt lat="48.04745" lon="7.01478">
        <ele>1268.6</ele>
        <time>2018-02-20T14:01:44Z</time>
      </trkpt>
      <trkpt lat="48.0473" lon="7.01471">
        <ele>1271.48</ele>
        <time>2018-02-20T14:02:02Z</time>
      </trkpt>
      <trkpt lat="48.04717" lon="7.01457">
        <ele>1273.4</ele>
        <time>2018-02-20T14:02:20Z</time>
      </trkpt>
      <trkpt lat="48.04706" lon="7.01434">
        <ele>1275.81</ele>
        <time>2018-02-20T14:02:40Z</time>
      </trkpt>
      <trkpt lat="48.04692" lon="7.01408">
        <ele>1277.73</ele>
        <time>2018-02-20T14:03:01Z</time>
      </trkpt>
      <trkpt lat="48.04674" lon="7.01382">
        <ele>1280.61</ele>
        <time>2018-02-20T14:03:24Z</time>
      </trkpt>
      <trkpt lat="48.04673" lon="7.01379">
        <ele>1280.61</ele>
        <time>2018-02-20T14:03:26Z</time>
      </trkpt>
      <trkpt lat="48.04652" lon="7.01362">
        <ele>1280.13</ele>
        <time>2018-02-20T14:03:47Z</time>
      </trkpt>
      <trkpt lat="48.04634" lon="7.0135">
        <ele>1279.65</ele>
        <time>2018-02-20T14:04:06Z</time>
      </trkpt>
      <trkpt lat="48.04616" lon="7.01338">
        <ele>1280.61</ele>
        <time>2018-02-20T14:04:23Z</time>
      </trkpt>
      <trkpt lat="48.04599" lon="7.01324">
        <ele>1281.09</ele>
        <time>2018-02-20T14:04:42Z</time>
      </trkpt>
      <trkpt lat="48.04581" lon="7.01312">
        <ele>1280.61</ele>
        <time>2018-02-20T14:05:02Z</time>
      </trkpt>
      <trkpt lat="48.04563" lon="7.01299">
        <ele>1283.02</ele>
        <time>2018-02-20T14:05:22Z</time>
      </trkpt>
      <trkpt lat="48.04545" lon="7.01286">
        <ele>1286.38</ele>
        <time>2018-02-20T14:05:43Z</time>
      </trkpt>
      <trkpt lat="48.04532" lon="7.01276">
        <ele>1288.78</ele>
        <time>2018-02-20T14:06:00Z</time>
      </trkpt>
      <trkpt lat="48.04515" lon="7.01263">
        <ele>1290.71</ele>
        <time>2018-02-20T14:06:19Z</time>
      </trkpt>
      <trkpt lat="48.04498" lon="7.01251">
        <ele>1292.15</ele>
        <time>2018-02-20T14:06:38Z</time>
      </trkpt>
      <trkpt lat="48.04481" lon="7.01238">
        <ele>1291.67</ele>
        <time>2018-02-20T14:06:57Z</time>
      </trkpt>
      <trkpt lat="48.04466" lon="7.01226">
        <ele>1294.07</ele>
        <time>2018-02-20T14:07:17Z</time>
      </trkpt>
      <trkpt lat="48.04448" lon="7.01212">
        <ele>1294.07</ele>
        <time>2018-02-20T14:07:37Z</time>
      </trkpt>
      <trkpt lat="48.04435" lon="7.01203">
        <ele>1295.51</ele>
        <time>2018-02-20T14:07:55Z</time>
      </trkpt>
      <trkpt lat="48.04415" lon="7.01195">
        <ele>1295.51</ele>
        <time>2018-02-20T14:08:15Z</time>
      </trkpt>
      <trkpt lat="48.04392" lon="7.01189">
        <ele>1294.07</ele>
        <time>2018-02-20T14:08:37Z</time>
      </trkpt>
      <trkpt lat="48.0437" lon="7.0118">
        <ele>1293.59</ele>
        <time>2018-02-20T14:09:00Z</time>
      </trkpt>
      <trkpt lat="48.04349" lon="7.01172">
        <ele>1293.59</ele>
        <time>2018-02-20T14:09:23Z</time>
      </trkpt>
      <trkpt lat="48.04333" lon="7.01164">
        <ele>1293.59</ele>
        <time>2018-02-20T14:09:43Z</time>
      </trkpt>
      <trkpt lat="48.04334" lon="7.01165">
        <ele>1294.07</ele>
        <time>2018-02-20T14:10:05Z</time>
      </trkpt>
      <trkpt lat="48.04335" lon="7.01168">
        <ele>1295.99</ele>
        <time>2018-02-20T14:10:34Z</time>
      </trkpt>
      <trkpt lat="48.04334" lon="7.01168">
        <ele>1295.99</ele>
        <time>2018-02-20T14:10:57Z</time>
      </trkpt>
      <trkpt lat="48.04335" lon="7.01166">
        <ele>1296.48</ele>
        <time>2018-02-20T14:11:22Z</time>
      </trkpt>
      <trkpt lat="48.04333" lon="7.01166">
        <ele>1298.4</ele>
        <time>2018-02-20T14:11:54Z</time>
      </trkpt>
      <trkpt lat="48.04333" lon="7.01165">
        <ele>1297.44</ele>
        <time>2018-02-20T14:12:15Z</time>
      </trkpt>
      <trkpt lat="48.04333" lon="7.01165">
        <ele>1296.96</ele>
        <time>2018-02-20T14:12:44Z</time>
      </trkpt>
      <trkpt lat="48.04332" lon="7.01167">
        <ele>1295.51</ele>
        <time>2018-02-20T14:13:08Z</time>
      </trkpt>
      <trkpt lat="48.04332" lon="7.01166">
        <ele>1294.55</ele>
        <time>2018-02-20T14:13:33Z</time>
      </trkpt>
      <trkpt lat="48.04333" lon="7.01164">
        <ele>1293.11</ele>
        <time>2018-02-20T14:14:01Z</time>
      </trkpt>
      <trkpt lat="48.04333" lon="7.01165">
        <ele>1293.59</ele>
        <time>2018-02-20T14:14:30Z</time>
      </trkpt>
      <trkpt lat="48.04324" lon="7.01161">
        <ele>1294.55</ele>
        <time>2018-02-20T14:14:53Z</time>
      </trkpt>
      <trkpt lat="48.04304" lon="7.01149">
        <ele>1296.96</ele>
        <time>2018-02-20T14:15:15Z</time>
      </trkpt>
      <trkpt lat="48.04282" lon="7.01142">
        <ele>1298.88</ele>
        <time>2018-02-20T14:15:38Z</time>
      </trkpt>
      <trkpt lat="48.04262" lon="7.01131">
        <ele>1297.44</ele>
        <time>2018-02-20T14:15:57Z</time>
      </trkpt>
      <trkpt lat="48.04242" lon="7.01119">
        <ele>1296.48</ele>
        <time>2018-02-20T14:16:17Z</time>
      </trkpt>
      <trkpt lat="48.04237" lon="7.0112">
        <ele>1295.51</ele>
        <time>2018-02-20T14:16:22Z</time>
      </trkpt>
      <trkpt lat="48.04217" lon="7.0111">
        <ele>1293.59</ele>
        <time>2018-02-20T14:16:43Z</time>
      </trkpt>
      <trkpt lat="48.042" lon="7.01102">
        <ele>1292.63</ele>
        <time>2018-02-20T14:17:05Z</time>
      </trkpt>
      <trkpt lat="48.04185" lon="7.01098">
        <ele>1290.71</ele>
        <time>2018-02-20T14:17:26Z</time>
      </trkpt>
      <trkpt lat="48.04171" lon="7.01099">
        <ele>1287.34</ele>
        <time>2018-02-20T14:17:46Z</time>
      </trkpt>
      <trkpt lat="48.0417" lon="7.01101">
        <ele>1286.38</ele>
        <time>2018-02-20T14:18:18Z</time>
      </trkpt>
      <trkpt lat="48.04166" lon="7.01102">
        <ele>1285.9</ele>
        <time>2018-02-20T14:18:45Z</time>
      </trkpt>
      <trkpt lat="48.04153" lon="7.01092">
        <ele>1287.34</ele>
        <time>2018-02-20T14:19:02Z</time>
      </trkpt>
      <trkpt lat="48.0414" lon="7.01081">
        <ele>1287.82</ele>
        <time>2018-02-20T14:19:20Z</time>
      </trkpt>
      <trkpt lat="48.04136" lon="7.01065">
        <ele>1288.3</ele>
        <time>2018-02-20T14:19:38Z</time>
      </trkpt>
      <trkpt lat="48.0413" lon="7.01034">
        <ele>1285.9</ele>
        <time>2018-02-20T14:20:00Z</time>
      </trkpt>
      <trkpt lat="48.04123" lon="7.01004">
        <ele>1283.02</ele>
        <time>2018-02-20T14:20:20Z</time>
      </trkpt>
      <trkpt lat="48.04117" lon="7.00976">
        <ele>1281.09</ele>
        <time>2018-02-20T14:20:38Z</time>
      </trkpt>
      <trkpt lat="48.04113" lon="7.00938">
        <ele>1277.25</ele>
        <time>2018-02-20T14:21:04Z</time>
      </trkpt>
      <trkpt lat="48.04111" lon="7.00911">
        <ele>1272.44</ele>
        <time>2018-02-20T14:21:24Z</time>
      </trkpt>
      <trkpt lat="48.04111" lon="7.00881">
        <ele>1270.04</ele>
        <time>2018-02-20T14:21:45Z</time>
      </trkpt>
      <trkpt lat="48.04112" lon="7.00851">
        <ele>1268.12</ele>
        <time>2018-02-20T14:22:04Z</time>
      </trkpt>
      <trkpt lat="48.04114" lon="7.00817">
        <ele>1267.16</ele>
        <time>2018-02-20T14:22:28Z</time>
      </trkpt>
      <trkpt lat="48.04118" lon="7.00788">
        <ele>1266.19</ele>
        <time>2018-02-20T14:22:47Z</time>
      </trkpt>
      <trkpt lat="48.04126" lon="7.00754">
        <ele>1264.27</ele>
        <time>2018-02-20T14:23:09Z</time>
      </trkpt>
      <trkpt lat="48.04132" lon="7.00723">
        <ele>1260.91</ele>
        <time>2018-02-20T14:23:31Z</time>
      </trkpt>
      <trkpt lat="48.04141" lon="7.00693">
        <ele>1258.02</ele>
        <time>2018-02-20T14:23:52Z</time>
      </trkpt>
      <trkpt lat="48.04154" lon="7.00661">
        <ele>1257.06</ele>
        <time>2018-02-20T14:24:15Z</time>
      </trkpt>
      <trkpt lat="48.04165" lon="7.00637">
        <ele>1256.58</ele>
        <time>2018-02-20T14:24:34Z</time>
      </trkpt>
      <trkpt lat="48.04182" lon="7.00612">
        <ele>1255.14</ele>
        <time>2018-02-20T14:24:55Z</time>
      </trkpt>
      <trkpt lat="48.04195" lon="7.00587">
        <ele>1254.66</ele>
        <time>2018-02-20T14:25:15Z</time>
      </trkpt>
      <trkpt lat="48.04206" lon="7.0057">
        <ele>1254.18</ele>
        <time>2018-02-20T14:25:30Z</time>
      </trkpt>
      <trkpt lat="48.04218" lon="7.00562">
        <ele>1251.77</ele>
        <time>2018-02-20T14:25:50Z</time>
      </trkpt>
      <trkpt lat="48.04233" lon="7.00545">
        <ele>1248.41</ele>
        <time>2018-02-20T14:26:13Z</time>
      </trkpt>
      <trkpt lat="48.04249" lon="7.00532">
        <ele>1247.93</ele>
        <time>2018-02-20T14:26:34Z</time>
      </trkpt>
      <trkpt lat="48.04263" lon="7.00523">
        <ele>1243.12</ele>
        <time>2018-02-20T14:26:54Z</time>
      </trkpt>
      <trkpt lat="48.04283" lon="7.00517">
        <ele>1234.95</ele>
        <time>2018-02-20T14:27:16Z</time>
      </trkpt>
      <trkpt lat="48.04301" lon="7.00523">
        <ele>1230.62</ele>
        <time>2018-02-20T14:27:34Z</time>
      </trkpt>
      <trkpt lat="48.04314" lon="7.00529">
        <ele>1226.78</ele>
        <time>2018-02-20T14:27:52Z</time>
      </trkpt>
      <trkpt lat="48.04329" lon="7.00536">
        <ele>1222.45</ele>
        <time>2018-02-20T14:28:11Z</time>
      </trkpt>
      <trkpt lat="48.04352" lon="7.00548">
        <ele>1223.42</ele>
        <time>2018-02-20T14:28:29Z</time>
      </trkpt>
      <trkpt lat="48.04371" lon="7.00561">
        <ele>1221.49</ele>
        <time>2018-02-20T14:28:50Z</time>
      </trkpt>
      <trkpt lat="48.04388" lon="7.00575">
        <ele>1222.45</ele>
        <time>2018-02-20T14:29:09Z</time>
      </trkpt>
      <trkpt lat="48.04401" lon="7.00586">
        <ele>1222.93</ele>
        <time>2018-02-20T14:29:29Z</time>
      </trkpt>
      <trkpt lat="48.04407" lon="7.00589">
        <ele>1225.34</ele>
        <time>2018-02-20T14:29:50Z</time>
      </trkpt>
      <trkpt lat="48.04411" lon="7.0059">
        <ele>1225.82</ele>
        <time>2018-02-20T14:30:09Z</time>
      </trkpt>
      <trkpt lat="48.04413" lon="7.00592">
        <ele>1226.3</ele>
        <time>2018-02-20T14:30:33Z</time>
      </trkpt>
      <trkpt lat="48.04414" lon="7.00594">
        <ele>1227.74</ele>
        <time>2018-02-20T14:31:00Z</time>
      </trkpt>
      <trkpt lat="48.04415" lon="7.00596">
        <ele>1227.74</ele>
        <time>2018-02-20T14:31:25Z</time>
      </trkpt>
      <trkpt lat="48.04417" lon="7.00596">
        <ele>1229.18</ele>
        <time>2018-02-20T14:31:45Z</time>
      </trkpt>
      <trkpt lat="48.04421" lon="7.00595">
        <ele>1232.55</ele>
        <time>2018-02-20T14:32:04Z</time>
      </trkpt>
      <trkpt lat="48.0442" lon="7.00597">
        <ele>1232.55</ele>
        <time>2018-02-20T14:32:20Z</time>
      </trkpt>
      <trkpt lat="48.04425" lon="7.00597">
        <ele>1231.59</ele>
        <time>2018-02-20T14:32:38Z</time>
      </trkpt>
      <trkpt lat="48.04425" lon="7.00593">
        <ele>1230.62</ele>
        <time>2018-02-20T14:33:02Z</time>
      </trkpt>
      <trkpt lat="48.04423" lon="7.00598">
        <ele>1231.11</ele>
        <time>2018-02-20T14:33:25Z</time>
      </trkpt>
      <trkpt lat="48.04421" lon="7.00602">
        <ele>1233.03</ele>
        <time>2018-02-20T14:33:46Z</time>
      </trkpt>
      <trkpt lat="48.0442" lon="7.00599">
        <ele>1235.43</ele>
        <time>2018-02-20T14:34:07Z</time>
      </trkpt>
      <trkpt lat="48.0442" lon="7.00596">
        <ele>1233.51</ele>
        <time>2018-02-20T14:34:37Z</time>
      </trkpt>
      <trkpt lat="48.04421" lon="7.00595">
        <ele>1229.66</ele>
        <time>2018-02-20T14:35:03Z</time>
      </trkpt>
      <trkpt lat="48.04423" lon="7.00597">
        <ele>1233.99</ele>
        <time>2018-02-20T14:35:38Z</time>
      </trkpt>
      <trkpt lat="48.04426" lon="7.00596">
        <ele>1238.32</ele>
        <time>2018-02-20T14:36:14Z</time>
      </trkpt>
      <trkpt lat="48.04426" lon="7.00599">
        <ele>1240.24</ele>
        <time>2018-02-20T14:36:52Z</time>
      </trkpt>
      <trkpt lat="48.04429" lon="7.00595">
        <ele>1238.32</ele>
        <time>2018-02-20T14:37:18Z</time>
      </trkpt>
      <trkpt lat="48.04438" lon="7.00595">
        <ele>1237.35</ele>
        <time>2018-02-20T14:37:36Z</time>
      </trkpt>
      <trkpt lat="48.04437" lon="7.00594">
        <ele>1236.87</ele>
        <time>2018-02-20T14:37:58Z</time>
      </trkpt>
      <trkpt lat="48.04436" lon="7.00597">
        <ele>1236.39</ele>
        <time>2018-02-20T14:38:22Z</time>
      </trkpt>
      <trkpt lat="48.04439" lon="7.00595">
        <ele>1234.47</ele>
        <time>2018-02-20T14:38:49Z</time>
      </trkpt>
      <trkpt lat="48.04441" lon="7.00598">
        <ele>1235.43</ele>
        <time>2018-02-20T14:39:13Z</time>
      </trkpt>
      <trkpt lat="48.0445" lon="7.00604">
        <ele>1235.91</ele>
        <time>2018-02-20T14:39:33Z</time>
      </trkpt>
      <trkpt lat="48.04464" lon="7.00618">
        <ele>1232.07</ele>
        <time>2018-02-20T14:39:54Z</time>
      </trkpt>
      <trkpt lat="48.04479" lon="7.00632">
        <ele>1227.26</ele>
        <time>2018-02-20T14:40:13Z</time>
      </trkpt>
      <trkpt lat="48.04493" lon="7.00634">
        <ele>1222.45</ele>
        <time>2018-02-20T14:40:33Z</time>
      </trkpt>
      <trkpt lat="48.04509" lon="7.00641">
        <ele>1220.05</ele>
        <time>2018-02-20T14:40:54Z</time>
      </trkpt>
      <trkpt lat="48.04524" lon="7.00648">
        <ele>1217.65</ele>
        <time>2018-02-20T14:41:10Z</time>
      </trkpt>
      <trkpt lat="48.04539" lon="7.00656">
        <ele>1213.32</ele>
        <time>2018-02-20T14:41:33Z</time>
      </trkpt>
      <trkpt lat="48.04557" lon="7.0066">
        <ele>1209.96</ele>
        <time>2018-02-20T14:41:53Z</time>
      </trkpt>
      <trkpt lat="48.04575" lon="7.00669">
        <ele>1206.59</ele>
        <time>2018-02-20T14:42:12Z</time>
      </trkpt>
      <trkpt lat="48.04596" lon="7.00679">
        <ele>1202.27</ele>
        <time>2018-02-20T14:42:32Z</time>
      </trkpt>
      <trkpt lat="48.04607" lon="7.00686">
        <ele>1198.9</ele>
        <time>2018-02-20T14:42:53Z</time>
      </trkpt>
      <trkpt lat="48.04636" lon="7.00689">
        <ele>1200.34</ele>
        <time>2018-02-20T14:43:14Z</time>
      </trkpt>
      <trkpt lat="48.04657" lon="7.0069">
        <ele>1199.38</ele>
        <time>2018-02-20T14:43:33Z</time>
      </trkpt>
      <trkpt lat="48.04675" lon="7.00689">
        <ele>1196.5</ele>
        <time>2018-02-20T14:43:52Z</time>
      </trkpt>
      <trkpt lat="48.04695" lon="7.00687">
        <ele>1194.58</ele>
        <time>2018-02-20T14:44:12Z</time>
      </trkpt>
      <trkpt lat="48.04711" lon="7.00685">
        <ele>1189.29</ele>
        <time>2018-02-20T14:44:31Z</time>
      </trkpt>
      <trkpt lat="48.04731" lon="7.00683">
        <ele>1185.44</ele>
        <time>2018-02-20T14:44:50Z</time>
      </trkpt>
      <trkpt lat="48.04748" lon="7.00682">
        <ele>1178.71</ele>
        <time>2018-02-20T14:45:13Z</time>
      </trkpt>
      <trkpt lat="48.04774" lon="7.00681">
        <ele>1175.35</ele>
        <time>2018-02-20T14:45:36Z</time>
      </trkpt>
      <trkpt lat="48.04793" lon="7.00682">
        <ele>1171.02</ele>
        <time>2018-02-20T14:45:57Z</time>
      </trkpt>
      <trkpt lat="48.04814" lon="7.00681">
        <ele>1166.22</ele>
        <time>2018-02-20T14:46:20Z</time>
      </trkpt>
      <trkpt lat="48.04837" lon="7.00688">
        <ele>1163.33</ele>
        <time>2018-02-20T14:46:40Z</time>
      </trkpt>
      <trkpt lat="48.04854" lon="7.00692">
        <ele>1162.37</ele>
        <time>2018-02-20T14:47:00Z</time>
      </trkpt>
      <trkpt lat="48.04868" lon="7.00692">
        <ele>1168.14</ele>
        <time>2018-02-20T14:47:23Z</time>
      </trkpt>
      <trkpt lat="48.0488" lon="7.0069">
        <ele>1172.47</ele>
        <time>2018-02-20T14:47:42Z</time>
      </trkpt>
      <trkpt lat="48.04894" lon="7.00692">
        <ele>1173.91</ele>
        <time>2018-02-20T14:48:01Z</time>
      </trkpt>
      <trkpt lat="48.04907" lon="7.00688">
        <ele>1174.39</ele>
        <time>2018-02-20T14:48:17Z</time>
      </trkpt>
      <trkpt lat="48.04918" lon="7.00688">
        <ele>1173.43</ele>
        <time>2018-02-20T14:48:35Z</time>
      </trkpt>
      <trkpt lat="48.04933" lon="7.00689">
        <ele>1170.54</ele>
        <time>2018-02-20T14:48:55Z</time>
      </trkpt>
      <trkpt lat="48.04955" lon="7.00693">
        <ele>1166.7</ele>
        <time>2018-02-20T14:49:13Z</time>
      </trkpt>
      <trkpt lat="48.04966" lon="7.00696">
        <ele>1165.74</ele>
        <time>2018-02-20T14:49:22Z</time>
      </trkpt>
      <trkpt lat="48.0497" lon="7.00696">
        <ele>1165.74</ele>
        <time>2018-02-20T14:49:24Z</time>
      </trkpt>
      <trkpt lat="48.04989" lon="7.00698">
        <ele>1162.85</ele>
        <time>2018-02-20T14:49:44Z</time>
      </trkpt>
      <trkpt lat="48.04999" lon="7.00696">
        <ele>1162.37</ele>
        <time>2018-02-20T14:50:05Z</time>
      </trkpt>
      <trkpt lat="48.05009" lon="7.00698">
        <ele>1161.89</ele>
        <time>2018-02-20T14:50:24Z</time>
      </trkpt>
      <trkpt lat="48.05025" lon="7.007">
        <ele>1157.56</ele>
        <time>2018-02-20T14:50:45Z</time>
      </trkpt>
      <trkpt lat="48.05043" lon="7.00697">
        <ele>1154.2</ele>
        <time>2018-02-20T14:51:03Z</time>
      </trkpt>
      <trkpt lat="48.05058" lon="7.00696">
        <ele>1151.32</ele>
        <time>2018-02-20T14:51:24Z</time>
      </trkpt>
      <trkpt lat="48.05074" lon="7.00702">
        <ele>1152.28</ele>
        <time>2018-02-20T14:51:45Z</time>
      </trkpt>
      <trkpt lat="48.05084" lon="7.00695">
        <ele>1152.28</ele>
        <time>2018-02-20T14:52:07Z</time>
      </trkpt>
      <trkpt lat="48.05097" lon="7.00689">
        <ele>1149.87</ele>
        <time>2018-02-20T14:52:30Z</time>
      </trkpt>
      <trkpt lat="48.05108" lon="7.00684">
        <ele>1149.39</ele>
        <time>2018-02-20T14:52:48Z</time>
      </trkpt>
      <trkpt lat="48.05122" lon="7.00679">
        <ele>1146.51</ele>
        <time>2018-02-20T14:53:07Z</time>
      </trkpt>
      <trkpt lat="48.05137" lon="7.00672">
        <ele>1140.74</ele>
        <time>2018-02-20T14:53:24Z</time>
      </trkpt>
      <trkpt lat="48.0517" lon="7.0066">
        <ele>1137.38</ele>
        <time>2018-02-20T14:53:46Z</time>
      </trkpt>
      <trkpt lat="48.0519" lon="7.00656">
        <ele>1131.13</ele>
        <time>2018-02-20T14:54:09Z</time>
      </trkpt>
      <trkpt lat="48.05208" lon="7.00653">
        <ele>1125.36</ele>
        <time>2018-02-20T14:54:30Z</time>
      </trkpt>
      <trkpt lat="48.0522" lon="7.00652">
        <ele>1119.59</ele>
        <time>2018-02-20T14:54:50Z</time>
      </trkpt>
      <trkpt lat="48.05242" lon="7.00654">
        <ele>1115.75</ele>
        <time>2018-02-20T14:55:12Z</time>
      </trkpt>
      <trkpt lat="48.05272" lon="7.00653">
        <ele>1115.27</ele>
        <time>2018-02-20T14:55:32Z</time>
      </trkpt>
      <trkpt lat="48.05297" lon="7.0065">
        <ele>1115.75</ele>
        <time>2018-02-20T14:55:50Z</time>
      </trkpt>
      <trkpt lat="48.0532" lon="7.00647">
        <ele>1117.19</ele>
        <time>2018-02-20T14:56:10Z</time>
      </trkpt>
      <trkpt lat="48.05336" lon="7.0064">
        <ele>1117.67</ele>
        <time>2018-02-20T14:56:30Z</time>
      </trkpt>
      <trkpt lat="48.05352" lon="7.00626">
        <ele>1117.67</ele>
        <time>2018-02-20T14:56:50Z</time>
      </trkpt>
      <trkpt lat="48.0536" lon="7.00609">
        <ele>1118.15</ele>
        <time>2018-02-20T14:57:09Z</time>
      </trkpt>
      <trkpt lat="48.05366" lon="7.0058">
        <ele>1117.67</ele>
        <time>2018-02-20T14:57:33Z</time>
      </trkpt>
      <trkpt lat="48.05375" lon="7.00559">
        <ele>1114.79</ele>
        <time>2018-02-20T14:57:54Z</time>
      </trkpt>
      <trkpt lat="48.05385" lon="7.00539">
        <ele>1111.9</ele>
        <time>2018-02-20T14:58:15Z</time>
      </trkpt>
      <trkpt lat="48.05392" lon="7.00522">
        <ele>1109.98</ele>
        <time>2018-02-20T14:58:34Z</time>
      </trkpt>
      <trkpt lat="48.05399" lon="7.00508">
        <ele>1109.02</ele>
        <time>2018-02-20T14:58:56Z</time>
      </trkpt>
      <trkpt lat="48.05402" lon="7.00507">
        <ele>1111.42</ele>
        <time>2018-02-20T14:59:08Z</time>
      </trkpt>
      <trkpt lat="48.05404" lon="7.00505">
        <ele>1112.38</ele>
        <time>2018-02-20T14:59:18Z</time>
      </trkpt>
    </trkseg>
  </trk>
</gpx>